sensor_id;sensor_type;location;lat;lon;timestamp;pressure;altitude;pressure_sealevel;temperature;humidity
68941;BME280;55982;51.476;7.552;2022-07-18T00:02:14;100613.97;;;16.92;54.71
68941;BME280;55982;51.476;7.552;2022-07-18T00:04:39;100612.41;;;16.88;54.55
68941;BME280;55982;51.476;7.552;2022-07-18T00:07:05;100612.53;;;16.85;54.79
68941;BME280;55982;51.476;7.552;2022-07-18T00:09:30;100613.28;;;16.88;54.27
68941;BME280;55982;51.476;7.552;2022-07-18T00:11:56;100616.25;;;16.99;53.58
68941;BME280;55982;51.476;7.552;2022-07-18T00:14:22;100614.56;;;17.17;52.24
68941;BME280;55982;51.476;7.552;2022-07-18T00:16:48;100617.09;;;17.37;51.78
68941;BME280;55982;51.476;7.552;2022-07-18T00:19:14;100615.66;;;17.49;51.28
68941;BME280;55982;51.476;7.552;2022-07-18T00:21:40;100607.34;;;17.56;50.73
68941;BME280;55982;51.476;7.552;2022-07-18T00:24:06;100600.19;;;17.58;50.75
68941;BME280;55982;51.476;7.552;2022-07-18T00:26:31;100594.59;;;17.64;50.70
68941;BME280;55982;51.476;7.552;2022-07-18T00:28:56;100603.53;;;17.62;51.12
68941;BME280;55982;51.476;7.552;2022-07-18T00:31:22;100591.19;;;17.62;51.40
68941;BME280;55982;51.476;7.552;2022-07-18T00:33:47;100598.34;;;17.60;51.13
68941;BME280;55982;51.476;7.552;2022-07-18T00:36:13;100595.38;;;17.49;51.76
68941;BME280;55982;51.476;7.552;2022-07-18T00:38:38;100589.91;;;17.52;51.75
68941;BME280;55982;51.476;7.552;2022-07-18T00:41:03;100590.19;;;17.46;52.05
68941;BME280;55982;51.476;7.552;2022-07-18T00:43:29;100575.47;;;17.40;52.24
68941;BME280;55982;51.476;7.552;2022-07-18T00:45:55;100579.91;;;17.40;52.21
68941;BME280;55982;51.476;7.552;2022-07-18T00:48:20;100582.13;;;17.49;52.07
68941;BME280;55982;51.476;7.552;2022-07-18T00:50:46;100567.22;;;17.48;51.93
68941;BME280;55982;51.476;7.552;2022-07-18T00:53:12;100567.81;;;17.53;51.97
68941;BME280;55982;51.476;7.552;2022-07-18T00:55:39;100565.00;;;17.56;51.76
68941;BME280;55982;51.476;7.552;2022-07-18T00:58:07;100573.59;;;17.61;51.35
68941;BME280;55982;51.476;7.552;2022-07-18T01:00:33;100564.88;;;17.59;51.36
68941;BME280;55982;51.476;7.552;2022-07-18T01:03:17;100561.97;;;17.64;51.05
68941;BME280;55982;51.476;7.552;2022-07-18T01:05:42;100564.72;;;17.79;50.42
68941;BME280;55982;51.476;7.552;2022-07-18T01:08:08;100567.22;;;17.82;50.18
68941;BME280;55982;51.476;7.552;2022-07-18T01:10:33;100567.34;;;17.96;49.60
68941;BME280;55982;51.476;7.552;2022-07-18T01:12:59;100566.44;;;17.97;49.65
68941;BME280;55982;51.476;7.552;2022-07-18T01:15:25;100568.13;;;17.98;49.52
68941;BME280;55982;51.476;7.552;2022-07-18T01:17:50;100566.44;;;17.97;49.54
68941;BME280;55982;51.476;7.552;2022-07-18T01:20:16;100573.28;;;18.01;49.20
68941;BME280;55982;51.476;7.552;2022-07-18T01:22:41;100575.47;;;17.93;49.86
68941;BME280;55982;51.476;7.552;2022-07-18T01:25:10;100574.59;;;17.93;49.90
68941;BME280;55982;51.476;7.552;2022-07-18T01:27:36;100575.63;;;17.90;49.74
68941;BME280;55982;51.476;7.552;2022-07-18T01:30:03;100580.47;;;17.99;49.18
68941;BME280;55982;51.476;7.552;2022-07-18T01:32:29;100563.22;;;18.08;48.48
68941;BME280;55982;51.476;7.552;2022-07-18T01:34:54;100567.50;;;18.10;48.24
68941;BME280;55982;51.476;7.552;2022-07-18T01:37:19;100567.50;;;18.10;48.47
68941;BME280;55982;51.476;7.552;2022-07-18T01:39:45;100567.50;;;18.10;48.32
68941;BME280;55982;51.476;7.552;2022-07-18T01:42:11;100572.13;;;18.07;48.72
68941;BME280;55982;51.476;7.552;2022-07-18T01:44:38;100571.56;;;18.00;49.23
68941;BME280;55982;51.476;7.552;2022-07-18T01:47:06;100577.50;;;17.88;49.37
68941;BME280;55982;51.476;7.552;2022-07-18T01:49:32;100578.50;;;17.86;49.72
68941;BME280;55982;51.476;7.552;2022-07-18T01:51:59;100570.00;;;17.96;48.60
68941;BME280;55982;51.476;7.552;2022-07-18T01:54:27;100577.66;;;17.85;49.56
68941;BME280;55982;51.476;7.552;2022-07-18T01:56:53;100583.63;;;17.89;48.97
68941;BME280;55982;51.476;7.552;2022-07-18T01:59:19;100565.97;;;17.72;50.04
68941;BME280;55982;51.476;7.552;2022-07-18T02:01:45;100564.41;;;17.51;52.58
68941;BME280;55982;51.476;7.552;2022-07-18T02:04:11;100553.72;;;17.53;51.25
68941;BME280;55982;51.476;7.552;2022-07-18T02:06:36;100551.34;;;17.48;51.55
68941;BME280;55982;51.476;7.552;2022-07-18T02:09:03;100556.06;;;17.59;49.94
68941;BME280;55982;51.476;7.552;2022-07-18T02:11:29;100548.84;;;17.79;48.95
68941;BME280;55982;51.476;7.552;2022-07-18T02:13:54;100552.56;;;17.92;48.42
68941;BME280;55982;51.476;7.552;2022-07-18T02:16:20;100549.91;;;18.09;47.69
68941;BME280;55982;51.476;7.552;2022-07-18T02:18:45;100546.88;;;18.17;47.52
68941;BME280;55982;51.476;7.552;2022-07-18T02:21:10;100550.13;;;18.22;47.34
68941;BME280;55982;51.476;7.552;2022-07-18T02:23:36;100548.16;;;18.25;47.43
68941;BME280;55982;51.476;7.552;2022-07-18T02:26:02;100543.44;;;18.15;47.66
68941;BME280;55982;51.476;7.552;2022-07-18T02:28:28;100542.75;;;18.11;47.95
68941;BME280;55982;51.476;7.552;2022-07-18T02:30:53;100536.03;;;18.04;48.02
68941;BME280;55982;51.476;7.552;2022-07-18T02:33:19;100532.94;;;17.96;48.43
68941;BME280;55982;51.476;7.552;2022-07-18T02:35:44;100533.72;;;17.98;48.25
68941;BME280;55982;51.476;7.552;2022-07-18T02:38:10;100525.78;;;17.98;48.19
68941;BME280;55982;51.476;7.552;2022-07-18T02:40:36;100534.34;;;18.03;48.06
68941;BME280;55982;51.476;7.552;2022-07-18T02:43:02;100537.91;;;18.02;47.86
68941;BME280;55982;51.476;7.552;2022-07-18T02:45:27;100534.34;;;18.03;48.11
68941;BME280;55982;51.476;7.552;2022-07-18T02:47:53;100536.34;;;17.98;48.18
68941;BME280;55982;51.476;7.552;2022-07-18T02:50:19;100549.91;;;17.92;48.28
68941;BME280;55982;51.476;7.552;2022-07-18T02:52:45;100537.72;;;17.90;48.61
68941;BME280;55982;51.476;7.552;2022-07-18T02:55:12;100540.66;;;17.84;48.88
68941;BME280;55982;51.476;7.552;2022-07-18T02:57:38;100540.88;;;17.79;48.94
68941;BME280;55982;51.476;7.552;2022-07-18T03:00:09;100539.97;;;17.80;48.86
68941;BME280;55982;51.476;7.552;2022-07-18T03:02:35;100539.88;;;17.82;49.08
68941;BME280;55982;51.476;7.552;2022-07-18T03:05:02;100535.00;;;17.74;49.25
68941;BME280;55982;51.476;7.552;2022-07-18T03:07:27;100539.81;;;17.66;49.55
68941;BME280;55982;51.476;7.552;2022-07-18T03:09:53;100537.84;;;17.53;50.09
68941;BME280;55982;51.476;7.552;2022-07-18T03:12:18;100538.22;;;17.45;50.32
68941;BME280;55982;51.476;7.552;2022-07-18T03:14:44;100529.47;;;17.26;52.06
68941;BME280;55982;51.476;7.552;2022-07-18T03:17:09;100537.22;;;17.12;52.09
68941;BME280;55982;51.476;7.552;2022-07-18T03:19:35;100536.09;;;16.99;53.57
68941;BME280;55982;51.476;7.552;2022-07-18T03:22:02;100537.94;;;16.97;52.79
68941;BME280;55982;51.476;7.552;2022-07-18T03:24:27;100535.47;;;16.94;52.63
68941;BME280;55982;51.476;7.552;2022-07-18T03:26:53;100530.50;;;17.05;52.12
68941;BME280;55982;51.476;7.552;2022-07-18T03:29:18;100541.38;;;16.99;52.23
68941;BME280;55982;51.476;7.552;2022-07-18T03:31:44;100534.97;;;16.86;53.00
68941;BME280;55982;51.476;7.552;2022-07-18T03:34:09;100534.13;;;16.67;55.37
68941;BME280;55982;51.476;7.552;2022-07-18T03:36:34;100541.53;;;16.59;55.35
68941;BME280;55982;51.476;7.552;2022-07-18T03:39:00;100529.47;;;16.53;54.49
68941;BME280;55982;51.476;7.552;2022-07-18T03:41:26;100533.88;;;16.53;54.34
68941;BME280;55982;51.476;7.552;2022-07-18T03:43:51;100529.41;;;16.55;54.59
68941;BME280;55982;51.476;7.552;2022-07-18T03:46:17;100533.25;;;16.66;54.51
68941;BME280;55982;51.476;7.552;2022-07-18T03:48:42;100530.53;;;16.68;54.37
68941;BME280;55982;51.476;7.552;2022-07-18T03:51:08;100530.25;;;16.74;54.33
68941;BME280;55982;51.476;7.552;2022-07-18T03:53:33;100531.63;;;16.82;53.26
68941;BME280;55982;51.476;7.552;2022-07-18T03:55:59;100527.66;;;16.91;52.90
68941;BME280;55982;51.476;7.552;2022-07-18T03:58:24;100526.75;;;16.92;53.30
68941;BME280;55982;51.476;7.552;2022-07-18T04:00:50;100518.94;;;16.89;53.57
68941;BME280;55982;51.476;7.552;2022-07-18T04:03:17;100527.53;;;16.94;53.49
68941;BME280;55982;51.476;7.552;2022-07-18T04:05:43;100524.22;;;16.89;53.71
68941;BME280;55982;51.476;7.552;2022-07-18T04:08:09;100521.81;;;17.03;53.35
68941;BME280;55982;51.476;7.552;2022-07-18T04:10:34;100526.50;;;17.15;52.48
68941;BME280;55982;51.476;7.552;2022-07-18T04:13:00;100520.91;;;17.21;52.29
68941;BME280;55982;51.476;7.552;2022-07-18T04:15:26;100534.75;;;17.26;52.44
68941;BME280;55982;51.476;7.552;2022-07-18T04:17:52;100538.03;;;17.31;52.78
68941;BME280;55982;51.476;7.552;2022-07-18T04:20:19;100536.16;;;17.33;52.30
68941;BME280;55982;51.476;7.552;2022-07-18T04:22:47;100540.16;;;17.42;52.25
68941;BME280;55982;51.476;7.552;2022-07-18T04:25:13;100537.34;;;17.45;52.30
68941;BME280;55982;51.476;7.552;2022-07-18T04:27:38;100530.75;;;17.36;56.26
68941;BME280;55982;51.476;7.552;2022-07-18T04:30:04;100533.19;;;17.22;57.36
68941;BME280;55982;51.476;7.552;2022-07-18T04:32:30;100526.31;;;17.36;53.65
68941;BME280;55982;51.476;7.552;2022-07-18T04:34:55;100528.28;;;17.50;52.50
68941;BME280;55982;51.476;7.552;2022-07-18T04:37:20;100525.97;;;17.61;52.12
68941;BME280;55982;51.476;7.552;2022-07-18T04:39:46;100527.34;;;17.68;52.34
68941;BME280;55982;51.476;7.552;2022-07-18T04:42:11;100528.91;;;17.72;52.47
68941;BME280;55982;51.476;7.552;2022-07-18T04:44:36;100531.34;;;17.77;52.13
68941;BME280;55982;51.476;7.552;2022-07-18T04:47:02;100524.88;;;17.82;52.12
68941;BME280;55982;51.476;7.552;2022-07-18T04:49:27;100529.84;;;17.88;52.96
68941;BME280;55982;51.476;7.552;2022-07-18T04:51:53;100530.38;;;17.95;52.41
68941;BME280;55982;51.476;7.552;2022-07-18T04:54:18;100528.56;;;18.12;51.38
68941;BME280;55982;51.476;7.552;2022-07-18T04:56:43;100529.63;;;18.25;51.02
68941;BME280;55982;51.476;7.552;2022-07-18T04:59:09;100531.03;;;18.33;51.20
68941;BME280;55982;51.476;7.552;2022-07-18T05:01:34;100522.03;;;18.35;50.72
68941;BME280;55982;51.476;7.552;2022-07-18T05:04:00;100532.25;;;18.43;50.54
68941;BME280;55982;51.476;7.552;2022-07-18T05:06:26;100525.94;;;18.45;50.34
68941;BME280;55982;51.476;7.552;2022-07-18T05:08:51;100524.75;;;18.51;49.83
68941;BME280;55982;51.476;7.552;2022-07-18T05:11:16;100527.25;;;18.54;49.90
68941;BME280;55982;51.476;7.552;2022-07-18T05:13:42;100532.81;;;18.65;49.50
68941;BME280;55982;51.476;7.552;2022-07-18T05:16:07;100525.78;;;18.79;49.26
68941;BME280;55982;51.476;7.552;2022-07-18T05:18:32;100529.41;;;18.94;48.15
68941;BME280;55982;51.476;7.552;2022-07-18T05:20:58;100535.88;;;19.04;47.88
68941;BME280;55982;51.476;7.552;2022-07-18T05:23:23;100533.31;;;19.18;47.81
68941;BME280;55982;51.476;7.552;2022-07-18T05:25:50;100524.91;;;19.26;47.79
68941;BME280;55982;51.476;7.552;2022-07-18T05:28:15;100529.19;;;19.28;47.90
68941;BME280;55982;51.476;7.552;2022-07-18T05:30:41;100527.31;;;19.30;47.75
68941;BME280;55982;51.476;7.552;2022-07-18T05:33:06;100522.00;;;19.30;48.26
68941;BME280;55982;51.476;7.552;2022-07-18T05:35:32;100542.97;;;19.35;48.01
68941;BME280;55982;51.476;7.552;2022-07-18T05:37:57;100529.56;;;19.38;47.89
68941;BME280;55982;51.476;7.552;2022-07-18T05:40:23;100531.66;;;19.47;48.26
68941;BME280;55982;51.476;7.552;2022-07-18T05:42:48;100517.19;;;19.52;46.86
68941;BME280;55982;51.476;7.552;2022-07-18T05:45:15;100522.31;;;19.55;47.17
68941;BME280;55982;51.476;7.552;2022-07-18T05:47:40;100515.91;;;19.59;47.29
68941;BME280;55982;51.476;7.552;2022-07-18T05:50:07;100520.38;;;19.73;46.47
68941;BME280;55982;51.476;7.552;2022-07-18T05:52:32;100520.91;;;19.93;45.86
68941;BME280;55982;51.476;7.552;2022-07-18T05:54:58;100514.16;;;20.02;45.59
68941;BME280;55982;51.476;7.552;2022-07-18T05:57:23;100512.38;;;20.17;45.45
68941;BME280;55982;51.476;7.552;2022-07-18T05:59:49;100512.31;;;20.32;45.12
68941;BME280;55982;51.476;7.552;2022-07-18T06:02:14;100506.69;;;20.37;45.21
68941;BME280;55982;51.476;7.552;2022-07-18T06:04:40;100509.47;;;20.49;45.31
68941;BME280;55982;51.476;7.552;2022-07-18T06:07:05;100499.00;;;20.60;45.63
68941;BME280;55982;51.476;7.552;2022-07-18T06:09:31;100500.13;;;20.70;45.17
68941;BME280;55982;51.476;7.552;2022-07-18T06:11:58;100492.78;;;20.88;44.81
68941;BME280;55982;51.476;7.552;2022-07-18T06:14:28;100493.09;;;21.10;44.10
68941;BME280;55982;51.476;7.552;2022-07-18T06:16:53;100502.16;;;21.34;43.39
68941;BME280;55982;51.476;7.552;2022-07-18T06:19:19;100492.84;;;21.66;43.40
68941;BME280;55982;51.476;7.552;2022-07-18T06:21:44;100492.34;;;21.87;41.89
68941;BME280;55982;51.476;7.552;2022-07-18T06:24:10;100489.47;;;22.02;41.92
68941;BME280;55982;51.476;7.552;2022-07-18T06:26:35;100497.03;;;22.33;41.54
68941;BME280;55982;51.476;7.552;2022-07-18T06:29:01;100493.06;;;22.64;40.54
68941;BME280;55982;51.476;7.552;2022-07-18T06:31:26;100489.59;;;22.87;40.05
68941;BME280;55982;51.476;7.552;2022-07-18T06:33:51;100483.97;;;23.26;39.75
68941;BME280;55982;51.476;7.552;2022-07-18T06:36:17;100482.28;;;23.49;38.57
68941;BME280;55982;51.476;7.552;2022-07-18T06:38:43;100489.00;;;23.66;37.81
68941;BME280;55982;51.476;7.552;2022-07-18T06:41:08;100490.75;;;23.89;37.75
68941;BME280;55982;51.476;7.552;2022-07-18T06:43:36;100484.94;;;23.95;37.24
68941;BME280;55982;51.476;7.552;2022-07-18T06:46:02;100497.09;;;23.99;37.73
68941;BME280;55982;51.476;7.552;2022-07-18T06:48:28;100500.81;;;24.31;37.61
68941;BME280;55982;51.476;7.552;2022-07-18T06:50:59;100496.16;;;24.66;36.82
68941;BME280;55982;51.476;7.552;2022-07-18T06:53:25;100486.84;;;25.03;36.17
68941;BME280;55982;51.476;7.552;2022-07-18T06:55:50;100491.72;;;25.09;36.00
68941;BME280;55982;51.476;7.552;2022-07-18T06:58:15;100494.13;;;25.23;35.24
68941;BME280;55982;51.476;7.552;2022-07-18T07:00:41;100508.16;;;25.48;36.19
68941;BME280;55982;51.476;7.552;2022-07-18T07:03:06;100495.13;;;25.75;34.98
68941;BME280;55982;51.476;7.552;2022-07-18T07:05:32;100498.41;;;25.99;34.95
68941;BME280;55982;51.476;7.552;2022-07-18T07:07:57;100494.84;;;26.19;34.37
68941;BME280;55982;51.476;7.552;2022-07-18T07:10:23;100490.41;;;26.29;34.68
68941;BME280;55982;51.476;7.552;2022-07-18T07:12:50;100491.22;;;26.60;33.71
68941;BME280;55982;51.476;7.552;2022-07-18T07:15:21;100484.38;;;26.86;32.92
68941;BME280;55982;51.476;7.552;2022-07-18T07:17:47;100491.50;;;26.96;33.17
68941;BME280;55982;51.476;7.552;2022-07-18T07:20:14;100492.63;;;27.03;32.55
68941;BME280;55982;51.476;7.552;2022-07-18T07:22:52;100490.09;;;27.11;32.22
68941;BME280;55982;51.476;7.552;2022-07-18T07:25:20;100500.84;;;27.11;32.24
68941;BME280;55982;51.476;7.552;2022-07-18T07:27:46;100489.59;;;27.37;32.61
68941;BME280;55982;51.476;7.552;2022-07-18T07:30:13;100488.72;;;27.65;32.73
68941;BME280;55982;51.476;7.552;2022-07-18T07:32:40;100487.00;;;28.02;31.50
68941;BME280;55982;51.476;7.552;2022-07-18T07:35:08;100475.19;;;28.49;30.43
68941;BME280;55982;51.476;7.552;2022-07-18T07:37:49;100482.06;;;28.34;30.64
68941;BME280;55982;51.476;7.552;2022-07-18T07:40:15;100477.06;;;28.76;30.14
68941;BME280;55982;51.476;7.552;2022-07-18T07:42:41;100474.91;;;29.07;30.61
68941;BME280;55982;51.476;7.552;2022-07-18T07:45:07;100470.16;;;29.36;29.48
68941;BME280;55982;51.476;7.552;2022-07-18T07:47:34;100470.63;;;29.49;29.29
68941;BME280;55982;51.476;7.552;2022-07-18T07:50:00;100468.44;;;29.70;30.08
68941;BME280;55982;51.476;7.552;2022-07-18T07:52:25;100465.81;;;29.78;30.69
68941;BME280;55982;51.476;7.552;2022-07-18T07:54:53;100464.28;;;29.58;28.71
68941;BME280;55982;51.476;7.552;2022-07-18T07:57:18;100459.94;;;29.65;29.23
68941;BME280;55982;51.476;7.552;2022-07-18T07:59:44;100459.78;;;29.84;28.93
68941;BME280;55982;51.476;7.552;2022-07-18T08:02:09;100457.84;;;29.94;27.88
68941;BME280;55982;51.476;7.552;2022-07-18T08:04:35;100456.91;;;30.11;28.30
68941;BME280;55982;51.476;7.552;2022-07-18T08:07:00;100462.16;;;30.38;28.04
68941;BME280;55982;51.476;7.552;2022-07-18T08:09:26;100460.88;;;30.58;28.53
68941;BME280;55982;51.476;7.552;2022-07-18T08:11:51;100464.00;;;31.37;26.75
68941;BME280;55982;51.476;7.552;2022-07-18T08:14:17;100460.91;;;31.00;27.06
68941;BME280;55982;51.476;7.552;2022-07-18T08:16:42;100460.34;;;30.89;26.46
68941;BME280;55982;51.476;7.552;2022-07-18T08:19:07;100457.25;;;30.76;26.97
68941;BME280;55982;51.476;7.552;2022-07-18T08:21:33;100460.03;;;31.00;26.66
68941;BME280;55982;51.476;7.552;2022-07-18T08:23:58;100450.63;;;31.20;26.85
68941;BME280;55982;51.476;7.552;2022-07-18T08:26:24;100451.66;;;31.43;27.11
68941;BME280;55982;51.476;7.552;2022-07-18T08:28:51;100456.03;;;31.76;26.23
68941;BME280;55982;51.476;7.552;2022-07-18T08:31:16;100460.28;;;31.71;26.71
68941;BME280;55982;51.476;7.552;2022-07-18T08:33:43;100457.56;;;31.63;26.45
68941;BME280;55982;51.476;7.552;2022-07-18T08:36:08;100457.13;;;32.46;26.11
68941;BME280;55982;51.476;7.552;2022-07-18T08:38:34;100446.84;;;33.03;25.06
68941;BME280;55982;51.476;7.552;2022-07-18T08:41:00;100447.16;;;33.31;24.08
68941;BME280;55982;51.476;7.552;2022-07-18T08:43:26;100446.84;;;32.95;26.04
68941;BME280;55982;51.476;7.552;2022-07-18T08:45:55;100445.03;;;32.95;26.26
68941;BME280;55982;51.476;7.552;2022-07-18T08:48:22;100447.13;;;32.47;23.83
68941;BME280;55982;51.476;7.552;2022-07-18T08:50:48;100444.03;;;33.19;23.72
68941;BME280;55982;51.476;7.552;2022-07-18T08:53:15;100434.66;;;32.99;24.26
68941;BME280;55982;51.476;7.552;2022-07-18T08:55:41;100438.38;;;33.51;24.17
68941;BME280;55982;51.476;7.552;2022-07-18T08:58:07;100439.03;;;33.90;22.37
68941;BME280;55982;51.476;7.552;2022-07-18T09:00:34;100439.06;;;34.20;22.50
68941;BME280;55982;51.476;7.552;2022-07-18T09:03:01;100441.97;;;33.66;23.57
68941;BME280;55982;51.476;7.552;2022-07-18T09:05:28;100449.84;;;33.98;23.61
68941;BME280;55982;51.476;7.552;2022-07-18T09:08:14;100449.56;;;34.23;21.76
68941;BME280;55982;51.476;7.552;2022-07-18T09:13:14;100447.59;;;34.31;22.19
68941;BME280;55982;51.476;7.552;2022-07-18T09:16:00;100433.69;;;34.70;21.04
68941;BME280;55982;51.476;7.552;2022-07-18T09:18:27;100437.66;;;34.38;24.96
68941;BME280;55982;51.476;7.552;2022-07-18T09:21:02;100443.63;;;35.13;22.14
68941;BME280;55982;51.476;7.552;2022-07-18T09:23:33;100443.09;;;35.66;21.90
68941;BME280;55982;51.476;7.552;2022-07-18T09:25:59;100427.53;;;34.97;21.19
68941;BME280;55982;51.476;7.552;2022-07-18T09:28:27;100427.28;;;36.04;20.06
68941;BME280;55982;51.476;7.552;2022-07-18T09:30:54;100435.34;;;35.63;19.77
68941;BME280;55982;51.476;7.552;2022-07-18T09:33:20;100425.25;;;37.20;19.14
68941;BME280;55982;51.476;7.552;2022-07-18T09:35:53;100434.53;;;37.19;18.71
68941;BME280;55982;51.476;7.552;2022-07-18T09:38:29;100432.19;;;36.56;21.47
68941;BME280;55982;51.476;7.552;2022-07-18T09:40:55;100431.19;;;36.29;20.58
68941;BME280;55982;51.476;7.552;2022-07-18T09:43:24;100430.28;;;36.50;19.34
68941;BME280;55982;51.476;7.552;2022-07-18T09:45:51;100432.47;;;37.60;19.70
68941;BME280;55982;51.476;7.552;2022-07-18T09:48:20;100426.59;;;37.90;17.48
68941;BME280;55982;51.476;7.552;2022-07-18T09:53:22;100413.16;;;36.69;19.25
68941;BME280;55982;51.476;7.552;2022-07-18T09:58:26;100405.91;;;36.96;19.68
68941;BME280;55982;51.476;7.552;2022-07-18T10:00:53;100416.41;;;36.92;18.09
68941;BME280;55982;51.476;7.552;2022-07-18T10:03:20;100418.13;;;37.19;17.97
68941;BME280;55982;51.476;7.552;2022-07-18T10:05:47;100410.19;;;37.83;16.81
68941;BME280;55982;51.476;7.552;2022-07-18T10:08:16;100408.22;;;37.12;16.97
68941;BME280;55982;51.476;7.552;2022-07-18T10:10:44;100409.16;;;36.65;17.90
68941;BME280;55982;51.476;7.552;2022-07-18T10:13:10;100406.63;;;36.70;17.12
68941;BME280;55982;51.476;7.552;2022-07-18T10:15:41;100405.41;;;36.32;17.41
68941;BME280;55982;51.476;7.552;2022-07-18T10:18:10;100410.97;;;35.55;18.92
68941;BME280;55982;51.476;7.552;2022-07-18T10:25:34;100402.22;;;37.82;17.46
68941;BME280;55982;51.476;7.552;2022-07-18T10:28:13;100397.19;;;36.66;16.75
68941;BME280;55982;51.476;7.552;2022-07-18T10:30:46;100401.94;;;37.11;16.52
68941;BME280;55982;51.476;7.552;2022-07-18T10:33:35;100395.88;;;37.09;16.96
68941;BME280;55982;51.476;7.552;2022-07-18T10:36:12;100395.06;;;37.41;16.13
68941;BME280;55982;51.476;7.552;2022-07-18T10:41:27;100392.13;;;37.63;16.56
68941;BME280;55982;51.476;7.552;2022-07-18T10:43:52;100400.63;;;38.38;16.37
68941;BME280;55982;51.476;7.552;2022-07-18T10:46:18;100394.84;;;39.35;16.75
68941;BME280;55982;51.476;7.552;2022-07-18T10:51:11;100389.94;;;39.12;15.67
68941;BME280;55982;51.476;7.552;2022-07-18T10:53:56;100400.88;;;38.17;15.56
68941;BME280;55982;51.476;7.552;2022-07-18T10:59:01;100385.22;;;37.40;15.78
68941;BME280;55982;51.476;7.552;2022-07-18T11:01:51;100393.91;;;39.41;15.78
68941;BME280;55982;51.476;7.552;2022-07-18T11:04:30;100397.09;;;39.06;15.25
68941;BME280;55982;51.476;7.552;2022-07-18T11:07:15;100390.03;;;37.78;15.57
68941;BME280;55982;51.476;7.552;2022-07-18T11:12:23;100389.13;;;36.92;18.34
68941;BME280;55982;51.476;7.552;2022-07-18T11:17:57;100393.44;;;38.88;14.94
68941;BME280;55982;51.476;7.552;2022-07-18T11:22:52;100370.56;;;39.13;14.53
68941;BME280;55982;51.476;7.552;2022-07-18T11:25:18;100377.31;;;38.29;17.49
68941;BME280;55982;51.476;7.552;2022-07-18T11:27:44;100377.41;;;38.91;15.40
68941;BME280;55982;51.476;7.552;2022-07-18T11:30:15;100371.53;;;37.67;15.75
68941;BME280;55982;51.476;7.552;2022-07-18T11:32:41;100367.94;;;37.73;16.54
68941;BME280;55982;51.476;7.552;2022-07-18T11:35:07;100371.91;;;37.18;16.19
68941;BME280;55982;51.476;7.552;2022-07-18T11:37:35;100370.97;;;36.71;17.11
68941;BME280;55982;51.476;7.552;2022-07-18T11:40:09;100365.91;;;35.80;18.46
68941;BME280;55982;51.476;7.552;2022-07-18T11:42:38;100357.28;;;37.38;16.92
68941;BME280;55982;51.476;7.552;2022-07-18T11:45:09;100359.94;;;37.91;15.69
68941;BME280;55982;51.476;7.552;2022-07-18T11:47:52;100346.28;;;36.86;16.85
68941;BME280;55982;51.476;7.552;2022-07-18T11:50:26;100349.66;;;37.80;16.30
68941;BME280;55982;51.476;7.552;2022-07-18T11:52:59;100348.44;;;37.49;16.25
68941;BME280;55982;51.476;7.552;2022-07-18T11:55:37;100332.44;;;37.46;16.98
68941;BME280;55982;51.476;7.552;2022-07-18T11:58:13;100336.59;;;38.90;16.14
68941;BME280;55982;51.476;7.552;2022-07-18T12:00:41;100333.78;;;38.96;15.73
68941;BME280;55982;51.476;7.552;2022-07-18T12:03:10;100331.28;;;38.13;15.69
68941;BME280;55982;51.476;7.552;2022-07-18T12:05:43;100338.91;;;39.17;15.95
68941;BME280;55982;51.476;7.552;2022-07-18T12:11:13;100333.97;;;38.70;15.19
68941;BME280;55982;51.476;7.552;2022-07-18T12:14:00;100334.44;;;38.23;16.47
68941;BME280;55982;51.476;7.552;2022-07-18T12:18:56;100328.47;;;40.00;14.27
68941;BME280;55982;51.476;7.552;2022-07-18T12:21:22;100330.00;;;39.28;15.45
68941;BME280;55982;51.476;7.552;2022-07-18T12:23:47;100330.53;;;39.12;15.66
68941;BME280;55982;51.476;7.552;2022-07-18T12:26:33;100329.25;;;39.64;16.10
68941;BME280;55982;51.476;7.552;2022-07-18T12:29:06;100323.78;;;38.46;16.52
68941;BME280;55982;51.476;7.552;2022-07-18T12:31:43;100320.94;;;38.21;16.91
68941;BME280;55982;51.476;7.552;2022-07-18T12:34:16;100311.50;;;38.62;16.47
68941;BME280;55982;51.476;7.552;2022-07-18T12:36:55;100308.81;;;40.03;17.41
68941;BME280;55982;51.476;7.552;2022-07-18T12:39:32;100316.53;;;39.70;15.06
68941;BME280;55982;51.476;7.552;2022-07-18T12:41:59;100313.81;;;38.27;16.67
68941;BME280;55982;51.476;7.552;2022-07-18T12:44:28;100304.72;;;37.10;18.08
68941;BME280;55982;51.476;7.552;2022-07-18T12:46:54;100305.56;;;38.71;15.90
68941;BME280;55982;51.476;7.552;2022-07-18T12:49:20;100311.44;;;38.75;15.51
68941;BME280;55982;51.476;7.552;2022-07-18T12:51:46;100307.22;;;38.79;15.64
68941;BME280;55982;51.476;7.552;2022-07-18T12:54:11;100311.47;;;38.99;15.18
68941;BME280;55982;51.476;7.552;2022-07-18T12:56:37;100311.81;;;39.34;15.26
68941;BME280;55982;51.476;7.552;2022-07-18T12:59:02;100303.97;;;39.38;15.83
68941;BME280;55982;51.476;7.552;2022-07-18T13:01:28;100291.72;;;38.60;15.41
68941;BME280;55982;51.476;7.552;2022-07-18T13:03:53;100301.81;;;39.21;15.48
68941;BME280;55982;51.476;7.552;2022-07-18T13:06:19;100294.75;;;39.57;15.10
68941;BME280;55982;51.476;7.552;2022-07-18T13:08:44;100293.84;;;39.63;15.90
68941;BME280;55982;51.476;7.552;2022-07-18T13:11:09;100280.84;;;39.76;16.77
68941;BME280;55982;51.476;7.552;2022-07-18T13:13:35;100280.72;;;40.37;16.63
68941;BME280;55982;51.476;7.552;2022-07-18T13:16:00;100282.38;;;40.68;14.16
68941;BME280;55982;51.476;7.552;2022-07-18T13:18:26;100277.88;;;41.61;13.79
68941;BME280;55982;51.476;7.552;2022-07-18T13:20:51;100273.56;;;42.16;14.67
68941;BME280;55982;51.476;7.552;2022-07-18T13:23:17;100280.72;;;41.20;15.83
68941;BME280;55982;51.476;7.552;2022-07-18T13:25:43;100273.94;;;42.93;12.42